Time;durP1;ratioP1;P1;durP2;ratioP2;P2;SDS_P1;SDS_P2;PMS_P1;PMS_P2;Temp;Humidity;BMP_temperature;BMP_pressure;BME280_temperature;BME280_humidity;BME280_pressure;Samples;Min_cycle;Max_cycle;Signal;HPM_P1;HPM_P2
2023/07/17 00:00:06;;;;;;;5.67;0.60;;;;;;;27.61;52.33;99683.84;5047343;27;20656;-64
2023/07/17 00:02:33;;;;;;;0.53;0.53;;;;;;;27.56;51.91;99673.75;5047384;27;20196;-64
2023/07/17 00:05:00;;;;;;;0.40;0.40;;;;;;;27.54;52.43;99680.13;5044774;27;20197;-64
2023/07/17 00:07:27;;;;;;;0.50;0.50;;;;;;;27.53;52.89;99684.56;5047027;27;20595;-64
2023/07/17 00:09:53;;;;;;;0.70;0.70;;;;;;;27.52;54.23;99676.84;5046576;27;20208;-64
2023/07/17 00:12:20;;;;;;;0.70;0.50;;;;;;;27.48;54.44;99680.72;5047089;27;20201;-63
2023/07/17 00:14:48;;;;;;;0.67;0.67;;;;;;;27.44;54.40;99679.34;5046730;27;20204;-64
2023/07/17 00:17:16;;;;;;;0.60;0.60;;;;;;;27.41;53.67;99674.34;5046457;27;20224;-64
2023/07/17 00:19:42;;;;;;;0.57;0.57;;;;;;;27.34;54.02;99686.44;5047008;27;20203;-64
2023/07/17 00:22:09;;;;;;;0.80;0.80;;;;;;;27.28;54.72;99689.66;5047061;27;20193;-64
2023/07/17 00:24:36;;;;;;;0.60;0.60;;;;;;;27.23;55.06;99682.22;5046966;27;20230;-64
2023/07/17 00:27:04;;;;;;;0.67;0.67;;;;;;;27.22;54.71;99682.34;5046632;27;20216;-64
2023/07/17 00:29:31;;;;;;;0.53;0.53;;;;;;;27.16;55.01;99688.19;5046964;27;20232;-64
2023/07/17 00:31:59;;;;;;;4.10;1.00;;;;;;;27.09;55.25;99685.31;5046185;27;20226;-64
2023/07/17 00:34:26;;;;;;;0.40;0.40;;;;;;;27.01;54.60;99693.91;5046508;27;20736;-64
2023/07/17 00:36:52;;;;;;;0.60;0.60;;;;;;;26.94;54.49;99687.59;5046710;27;20200;-64
2023/07/17 00:39:20;;;;;;;0.97;0.97;;;;;;;26.89;55.08;99689.78;5046326;27;20208;-63
2023/07/17 00:41:47;;;;;;;0.50;0.50;;;;;;;26.84;56.02;99684.16;5047220;27;20287;-64
2023/07/17 00:44:14;;;;;;;0.53;0.53;;;;;;;26.81;55.69;99687.06;5080674;27;20206;-64
2023/07/17 00:46:41;;;;;;;0.47;0.40;;;;;;;26.76;55.85;99691.88;5046917;27;20715;-63
2023/07/17 00:49:10;;;;;;;0.77;0.77;;;;;;;26.65;56.49;99675.44;5046171;27;20660;-64
2023/07/17 00:51:38;;;;;;;0.73;0.73;;;;;;;26.70;56.48;99684.56;5046521;27;20700;-63
2023/07/17 00:54:06;;;;;;;0.50;0.50;;;;;;;26.72;56.69;99689.69;5046321;27;20197;-64
2023/07/17 00:56:34;;;;;;;0.50;0.50;;;;;;;26.68;57.39;99690.94;5045354;27;20189;-64
2023/07/17 00:59:01;;;;;;;0.57;0.57;;;;;;;26.56;56.54;99679.72;5044485;27;20200;-64
2023/07/17 01:01:28;;;;;;;0.80;0.80;;;;;;;26.62;56.79;99687.06;5045489;27;20262;-64
2023/07/17 01:03:56;;;;;;;0.43;0.43;;;;;;;26.59;57.45;99697.88;5046922;27;20200;-64
2023/07/17 01:06:27;;;;;;;0.53;0.53;;;;;;;26.53;58.23;99691.34;5058065;27;20213;-64
2023/07/17 01:08:54;;;;;;;0.90;0.90;;;;;;;26.42;58.15;99691.53;5084127;27;20629;-64
2023/07/17 01:11:21;;;;;;;0.60;0.60;;;;;;;26.36;58.07;99691.25;5049762;27;20580;-64
2023/07/17 01:13:49;;;;;;;0.70;0.70;;;;;;;26.29;58.30;99690.97;5047207;27;20577;-64
2023/07/17 01:16:16;;;;;;;0.53;0.53;;;;;;;26.27;58.55;99684.22;5085224;27;20580;-64
2023/07/17 01:18:43;;;;;;;1.23;1.20;;;;;;;26.24;59.28;99689.72;5046220;27;20204;-64
2023/07/17 01:21:12;;;;;;;0.70;0.70;;;;;;;26.22;59.52;99681.16;5046352;27;20273;-63
2023/07/17 01:23:40;;;;;;;0.60;0.60;;;;;;;26.16;59.33;99679.03;5046315;27;20197;-64
2023/07/17 01:26:15;;;;;;;0.70;0.70;;;;;;;26.16;59.71;99681.66;5051370;27;20691;-64
2023/07/17 01:28:42;;;;;;;1.00;0.80;;;;;;;26.06;60.18;99665.91;5046070;27;20201;-64
2023/07/17 01:31:09;;;;;;;0.50;0.50;;;;;;;26.10;60.35;99676.00;5046151;27;20201;-64
2023/07/17 01:33:36;;;;;;;0.90;0.90;;;;;;;26.05;60.12;99686.09;5045917;27;20207;-64
2023/07/17 01:36:06;;;;;;;0.90;0.90;;;;;;;26.03;60.28;99681.94;5045936;27;20549;-63
2023/07/17 01:38:33;;;;;;;0.73;0.73;;;;;;;26.02;61.41;99683.72;5043669;27;20674;-63
2023/07/17 01:41:01;;;;;;;0.87;0.87;;;;;;;25.99;61.57;99684.00;5045807;27;20225;-63
2023/07/17 01:43:28;;;;;;;0.70;0.70;;;;;;;25.99;61.09;99676.13;5042591;27;20208;-63
2023/07/17 01:45:55;;;;;;;0.73;0.73;;;;;;;25.93;61.30;99663.53;5062010;27;20193;-64
2023/07/17 01:48:22;;;;;;;0.60;0.60;;;;;;;26.00;61.45;99690.94;5084674;27;21401;-63
2023/07/17 01:50:48;;;;;;;0.67;0.67;;;;;;;26.00;61.57;99684.84;5069245;27;20751;-64
2023/07/17 01:53:18;;;;;;;0.83;0.83;;;;;;;25.99;61.65;99686.63;5047567;27;20193;-63
2023/07/17 01:55:46;;;;;;;0.80;0.80;;;;;;;25.99;62.11;99684.00;5066374;27;20197;-63
2023/07/17 01:58:14;;;;;;;0.67;0.67;;;;;;;25.93;62.86;99684.56;5048923;27;20250;-63
2023/07/17 02:00:41;;;;;;;1.20;0.87;;;;;;;25.95;62.60;99687.88;5049164;27;20223;-63
2023/07/17 02:03:07;;;;;;;0.53;0.53;;;;;;;25.93;63.14;99684.56;5048955;27;20251;-64
2023/07/17 02:05:34;;;;;;;0.70;0.70;;;;;;;25.84;63.10;99687.19;5049328;27;20554;-63
2023/07/17 02:08:01;;;;;;;0.50;0.50;;;;;;;25.83;62.78;99678.47;5059524;27;20608;-63
2023/07/17 02:10:28;;;;;;;3.30;0.70;;;;;;;25.82;63.45;99681.22;5093404;27;20212;-64
2023/07/17 02:12:57;;;;;;;0.93;0.87;;;;;;;25.79;63.78;99682.31;5071374;27;20287;-64
2023/07/17 02:15:25;;;;;;;0.50;0.50;;;;;;;25.73;63.89;99693.38;5048718;27;20208;-64
2023/07/17 02:17:52;;;;;;;1.10;1.10;;;;;;;25.68;62.94;99695.59;5048539;27;20227;-64
2023/07/17 02:20:20;;;;;;;0.50;0.50;;;;;;;25.65;62.96;99689.75;5048584;27;20197;-63
2023/07/17 02:22:47;;;;;;;1.33;0.63;;;;;;;25.58;64.05;99678.97;5077145;27;20207;-63
2023/07/17 02:25:13;;;;;;;0.60;0.60;;;;;;;25.56;63.88;99688.75;5057127;27;20232;-63
2023/07/17 02:27:40;;;;;;;0.80;0.80;;;;;;;25.53;64.67;99679.34;5048392;27;20213;-64
2023/07/17 02:30:08;;;;;;;1.10;1.10;;;;;;;25.43;65.35;99685.50;5048195;27;20200;-63
2023/07/17 02:32:36;;;;;;;0.70;0.70;;;;;;;25.36;65.74;99679.16;5049181;27;20204;-64
2023/07/17 02:35:03;;;;;;;0.90;0.90;;;;;;;25.31;65.94;99682.16;5048390;27;20617;-63
2023/07/17 02:37:30;;;;;;;0.60;0.60;;;;;;;25.30;66.33;99682.31;5057676;27;20201;-64
2023/07/17 02:39:57;;;;;;;0.60;0.60;;;;;;;25.24;66.79;99680.19;5069367;27;20714;-64
2023/07/17 02:42:23;;;;;;;1.03;0.93;;;;;;;25.21;66.67;99680.44;5048321;27;20199;-64
2023/07/17 02:44:50;;;;;;;1.33;0.70;;;;;;;25.14;66.85;99681.97;5048474;27;20202;-64
2023/07/17 02:47:18;;;;;;;0.80;0.77;;;;;;;25.06;67.50;99678.19;5047818;27;20221;-63
2023/07/17 02:49:46;;;;;;;1.03;0.93;;;;;;;25.00;68.13;99688.38;5048575;27;20295;-63
2023/07/17 02:52:13;;;;;;;0.90;0.90;;;;;;;24.97;67.82;99684.25;5075003;27;20193;-64
2023/07/17 02:54:39;;;;;;;0.87;0.87;;;;;;;24.95;66.91;99685.31;5050584;27;20686;-64
2023/07/17 02:57:07;;;;;;;1.13;1.00;;;;;;;24.93;66.84;99692.47;5080897;27;20242;-63
2023/07/17 02:59:33;;;;;;;1.53;1.00;;;;;;;24.94;66.19;99687.09;5127442;27;20198;-64
2023/07/17 03:02:00;;;;;;;1.30;1.13;;;;;;;24.92;66.14;99682.94;5098908;27;20209;-63
2023/07/17 03:04:27;;;;;;;0.90;0.80;;;;;;;24.92;66.82;99696.88;5047428;27;20204;-64
2023/07/17 03:06:55;;;;;;;1.10;1.10;;;;;;;24.89;67.30;99697.16;5048097;27;20228;-64
2023/07/17 03:09:22;;;;;;;1.37;1.27;;;;;;;24.89;68.39;99696.31;5047072;27;20265;-64
2023/07/17 03:11:49;;;;;;;0.90;0.90;;;;;;;24.90;68.77;99693.59;5048248;27;20257;-63
2023/07/17 03:14:16;;;;;;;0.93;0.93;;;;;;;24.88;69.85;99698.09;5047581;27;20689;-63
2023/07/17 03:16:43;;;;;;;2.80;0.93;;;;;;;24.83;70.02;99686.34;5047749;27;20247;-64
2023/07/17 03:19:10;;;;;;;1.10;1.10;;;;;;;24.88;71.02;99699.94;5047511;27;20203;-64
2023/07/17 03:21:37;;;;;;;1.43;1.00;;;;;;;24.73;71.02;99703.78;5047209;27;20204;-63
2023/07/17 03:24:06;;;;;;;1.17;1.17;;;;;;;24.69;71.05;99694.50;5047367;27;20201;-63
2023/07/17 03:26:32;;;;;;;0.90;0.90;;;;;;;24.71;71.00;99701.31;5044460;27;20203;-64
2023/07/17 03:28:59;;;;;;;2.43;0.83;;;;;;;24.60;71.11;99688.25;5073077;27;20282;-63
2023/07/17 03:31:26;;;;;;;0.50;0.50;;;;;;;24.70;71.35;99701.41;5044357;27;20204;-64
2023/07/17 03:33:53;;;;;;;1.17;1.17;;;;;;;24.71;71.67;99709.16;5046581;27;20220;-63
2023/07/17 03:36:20;;;;;;;0.93;0.63;;;;;;;24.72;72.56;99713.44;5047435;27;20219;-64
2023/07/17 03:38:46;;;;;;;1.03;1.03;;;;;;;24.69;72.47;99705.81;5047885;27;20193;-63
2023/07/17 03:41:17;;;;;;;0.50;0.50;;;;;;;24.75;72.82;99713.19;5047293;27;20576;-63
2023/07/17 03:43:44;;;;;;;0.80;0.80;;;;;;;24.78;72.24;99705.03;5047454;27;20245;-63
2023/07/17 03:46:11;;;;;;;0.80;0.80;;;;;;;24.82;71.95;99706.50;5047154;27;20245;-64
2023/07/17 03:48:37;;;;;;;0.60;0.60;;;;;;;24.86;71.65;99702.66;5047035;27;20718;-63
2023/07/17 03:51:04;;;;;;;0.70;0.70;;;;;;;24.91;71.83;99718.81;5046505;27;20209;-64
2023/07/17 03:53:31;;;;;;;0.93;0.93;;;;;;;24.95;71.59;99722.88;5042602;27;20295;-64
2023/07/17 03:55:58;;;;;;;2.50;0.90;;;;;;;25.04;71.97;99718.66;5046403;27;20640;-64
2023/07/17 03:58:27;;;;;;;0.87;0.87;;;;;;;25.11;71.68;99730.25;5046876;27;22117;-64
2023/07/17 04:00:54;;;;;;;1.27;1.03;;;;;;;25.24;72.47;99730.03;5054575;27;20201;-64
2023/07/17 04:03:20;;;;;;;1.70;1.23;;;;;;;25.32;72.29;99730.25;5049311;27;20204;-64
2023/07/17 04:05:48;;;;;;;0.80;0.80;;;;;;;25.44;72.04;99731.81;5046216;27;20656;-64
2023/07/17 04:08:15;;;;;;;0.80;0.80;;;;;;;25.52;70.58;99732.03;5045067;27;20312;-64
2023/07/17 04:10:42;;;;;;;0.80;0.80;;;;;;;25.61;70.51;99735.63;5046290;27;20204;-64
2023/07/17 04:13:08;;;;;;;0.87;0.87;;;;;;;25.62;70.33;99721.53;5054085;27;20205;-64
2023/07/17 04:15:37;;;;;;;0.90;0.90;;;;;;;25.80;70.40;99741.78;5047202;27;20261;-65
2023/07/17 04:18:04;;;;;;;0.80;0.80;;;;;;;25.89;70.10;99735.72;5043999;27;20303;-64
2023/07/17 04:20:31;;;;;;;0.90;0.90;;;;;;;26.01;69.47;99725.94;5040737;27;20577;-64
2023/07/17 04:22:57;;;;;;;0.73;0.73;;;;;;;26.10;69.06;99736.44;5106887;27;20209;-64
2023/07/17 04:25:24;;;;;;;0.83;0.83;;;;;;;26.24;69.79;99739.66;5046604;27;20576;-64
2023/07/17 04:27:51;;;;;;;0.87;0.87;;;;;;;26.34;69.64;99735.22;5055124;27;20234;-64
2023/07/17 04:30:18;;;;;;;1.00;1.00;;;;;;;26.48;69.35;99737.47;5066165;27;20265;-65
2023/07/17 04:32:52;;;;;;;0.83;0.83;;;;;;;26.65;67.98;99731.50;5063381;27;20212;-64
2023/07/17 04:35:19;;;;;;;0.80;0.80;;;;;;;26.71;67.31;99723.03;5071964;27;20269;-64
2023/07/17 04:37:45;;;;;;;0.90;0.90;;;;;;;26.89;65.56;99752.94;5084506;27;20201;-64
2023/07/17 04:40:13;;;;;;;0.80;0.80;;;;;;;26.99;64.10;99750.28;5047148;27;20205;-64
2023/07/17 04:42:40;;;;;;;0.80;0.80;;;;;;;27.13;65.21;99755.97;5083395;27;20581;-65
2023/07/17 04:45:08;;;;;;;0.87;0.87;;;;;;;27.25;63.67;99750.50;5047397;27;20205;-66
2023/07/17 04:47:34;;;;;;;0.70;0.70;;;;;;;27.38;63.97;99758.91;5076218;27;20221;-66
2023/07/17 04:50:03;;;;;;;0.70;0.70;;;;;;;27.54;64.29;99759.16;5054236;27;20197;-65
2023/07/17 04:52:29;;;;;;;0.77;0.77;;;;;;;27.73;63.96;99755.59;5071639;27;20632;-66
2023/07/17 04:54:57;;;;;;;0.70;0.70;;;;;;;27.94;63.31;99751.75;5095695;27;20211;-66
2023/07/17 04:57:24;;;;;;;1.63;0.85;;;;;;;28.11;63.44;99743.03;5068220;27;20449;-65
2023/07/17 04:59:50;;;;;;;1.02;1.00;;;;;;;28.36;61.87;99756.47;5081752;27;20440;-65
2023/07/17 05:02:17;;;;;;;1.23;0.80;;;;;;;28.62;59.12;99747.66;5047729;27;20204;-65
2023/07/17 05:04:44;;;;;;;0.80;0.80;;;;;;;28.83;57.38;99749.16;5046731;27;20204;-65
2023/07/17 05:07:12;;;;;;;0.77;0.77;;;;;;;28.98;55.57;99753.69;5084028;27;20200;-66
2023/07/17 05:09:39;;;;;;;0.77;0.77;;;;;;;29.16;56.41;99758.94;5126602;27;20831;-66
2023/07/17 05:12:06;;;;;;;0.47;0.47;;;;;;;29.30;53.58;99752.31;5043524;27;20633;-66
2023/07/17 05:14:33;;;;;;;0.67;0.50;;;;;;;29.46;54.61;99752.38;5048251;27;20209;-66
2023/07/17 05:17:00;;;;;;;0.80;0.80;;;;;;;29.64;54.86;99758.41;5046532;27;20376;-66
2023/07/17 05:19:28;;;;;;;0.60;0.60;;;;;;;29.73;50.47;99767.22;5050981;27;20680;-66
2023/07/17 05:21:55;;;;;;;0.57;0.57;;;;;;;29.88;51.79;99755.06;5050724;27;20212;-66
2023/07/17 05:24:23;;;;;;;1.70;0.80;;;;;;;29.86;47.96;99743.78;5051076;27;20220;-66
2023/07/17 05:26:50;;;;;;;0.50;0.50;;;;;;;30.00;47.55;99757.22;5051503;27;20204;-66
2023/07/17 05:29:16;;;;;;;0.70;0.70;;;;;;;30.17;48.97;99756.28;5050870;27;20220;-66
2023/07/17 05:31:43;;;;;;;0.82;0.82;;;;;;;30.32;48.68;99747.69;5049633;27;20220;-66
2023/07/17 05:34:10;;;;;;;0.73;0.70;;;;;;;30.46;46.06;99757.69;5051421;27;20205;-66
2023/07/17 05:36:37;;;;;;;2.60;0.63;;;;;;;30.61;46.31;99756.00;5063384;27;20197;-66
2023/07/17 05:39:04;;;;;;;0.60;0.60;;;;;;;30.76;45.18;99748.25;5045395;27;20196;-66
2023/07/17 05:41:32;;;;;;;0.70;0.70;;;;;;;30.94;45.28;99752.38;5046362;27;20281;-66
2023/07/17 05:43:59;;;;;;;0.70;0.70;;;;;;;31.15;44.43;99752.66;5049806;27;20204;-66
2023/07/17 05:46:26;;;;;;;0.60;0.60;;;;;;;31.31;43.77;99753.66;5053014;27;20672;-66
2023/07/17 05:48:53;;;;;;;1.27;0.88;;;;;;;31.26;43.84;99753.31;5067888;27;20225;-66
2023/07/17 05:51:20;;;;;;;0.60;0.60;;;;;;;31.33;43.24;99741.03;5078111;27;20212;-66
2023/07/17 05:53:46;;;;;;;0.60;0.60;;;;;;;31.50;42.02;99747.97;5066018;27;20245;-66
2023/07/17 05:56:15;;;;;;;0.50;0.50;;;;;;;31.68;43.45;99756.50;5099371;27;20208;-66
2023/07/17 05:58:43;;;;;;;0.77;0.77;;;;;;;31.81;43.04;99759.44;5049032;27;20665;-66
2023/07/17 06:01:10;;;;;;;4.32;0.50;;;;;;;32.02;43.65;99764.13;5082983;27;20216;-67
2023/07/17 06:03:37;;;;;;;0.63;0.63;;;;;;;32.07;43.69;99752.03;5089425;27;20200;-66
2023/07/17 06:06:04;;;;;;;0.57;0.57;;;;;;;32.10;42.65;99756.97;5048519;27;20688;-66
2023/07/17 06:08:31;;;;;;;0.50;0.50;;;;;;;32.37;43.85;99750.34;5049367;27;20220;-66
2023/07/17 06:10:58;;;;;;;4.88;0.80;;;;;;;32.60;42.55;99755.66;5049566;27;20224;-67
2023/07/17 06:13:24;;;;;;;0.50;0.50;;;;;;;32.81;40.27;99755.81;5080762;27;20621;-67
2023/07/17 06:15:53;;;;;;;0.63;0.63;;;;;;;32.93;41.14;99757.00;5086584;27;20205;-67
2023/07/17 06:18:19;;;;;;;0.60;0.60;;;;;;;33.17;42.89;99762.13;5068563;27;20711;-67
2023/07/17 06:20:46;;;;;;;0.77;0.77;;;;;;;33.31;40.48;99751.69;5078972;27;20245;-67
2023/07/17 06:23:13;;;;;;;0.80;0.80;;;;;;;33.41;38.70;99754.91;5080589;27;20664;-67
2023/07/17 06:25:40;;;;;;;0.82;0.55;;;;;;;33.57;38.04;99757.34;5078799;27;20615;-66
2023/07/17 06:28:06;;;;;;;0.60;0.60;;;;;;;33.64;36.90;99753.78;5078901;27;20661;-64
2023/07/17 06:30:33;;;;;;;0.50;0.50;;;;;;;33.43;37.46;99750.22;5091302;27;20206;-70
2023/07/17 06:33:02;;;;;;;0.68;0.68;;;;;;;33.61;37.90;99745.34;5072946;27;20253;-65
2023/07/17 06:35:29;;;;;;;0.70;0.70;;;;;;;33.91;36.91;99749.63;5069440;27;20288;-65
2023/07/17 06:37:55;;;;;;;0.73;0.73;;;;;;;34.16;36.45;99745.63;5071495;27;20216;-64
2023/07/17 06:40:22;;;;;;;1.70;0.75;;;;;;;34.32;35.94;99749.03;5050229;27;20204;-65
2023/07/17 06:42:49;;;;;;;0.73;0.73;;;;;;;34.59;35.85;99742.94;5058766;27;20213;-65
2023/07/17 06:45:16;;;;;;;0.55;0.55;;;;;;;34.78;35.53;99739.66;5047570;27;20208;-66
2023/07/17 06:47:42;;;;;;;0.98;0.90;;;;;;;34.96;34.91;99745.28;5047262;27;20216;-66
2023/07/17 06:50:11;;;;;;;0.60;0.60;;;;;;;35.19;32.66;99745.91;5040595;27;20455;-64
2023/07/17 06:52:38;;;;;;;1.10;0.70;;;;;;;35.48;33.02;99738.69;5048533;27;20454;-63
2023/07/17 06:55:07;;;;;;;0.60;0.60;;;;;;;35.66;33.33;99739.00;5052420;27;20224;-63
2023/07/17 06:57:33;;;;;;;0.50;0.50;;;;;;;35.90;33.78;99735.78;5072839;27;20617;-63
2023/07/17 07:00:00;;;;;;;0.68;0.68;;;;;;;35.94;36.79;99734.34;5072951;27;20672;-63
2023/07/17 07:02:27;;;;;;;1.80;0.85;;;;;;;36.16;35.32;99727.03;5043335;27;20596;-63
2023/07/17 07:04:54;;;;;;;0.77;0.77;;;;;;;36.33;34.46;99728.28;5046757;27;20208;-63
2023/07/17 07:07:22;;;;;;;0.77;0.77;;;;;;;36.14;32.30;99713.91;5062411;27;20204;-63
2023/07/17 07:09:49;;;;;;;1.10;0.93;;;;;;;36.29;33.69;99716.38;5051993;27;20225;-63
2023/07/17 07:12:16;;;;;;;0.63;0.63;;;;;;;36.46;32.96;99709.63;5044131;27;20197;-63
2023/07/17 07:14:42;;;;;;;0.93;0.93;;;;;;;36.68;34.03;99710.25;5069393;27;20216;-63
2023/07/17 07:17:09;;;;;;;1.05;1.05;;;;;;;36.76;33.24;99712.72;5060735;27;20233;-65
2023/07/17 07:19:36;;;;;;;0.70;0.70;;;;;;;36.61;32.17;99714.78;5070738;27;20204;-66
2023/07/17 07:22:04;;;;;;;0.90;0.90;;;;;;;36.83;34.51;99702.84;5049986;27;20205;-64
2023/07/17 07:24:32;;;;;;;0.70;0.70;;;;;;;36.92;32.07;99693.56;5068688;27;20209;-64
2023/07/17 07:26:58;;;;;;;0.65;0.65;;;;;;;37.20;31.54;99709.34;5067592;27;20630;-64
2023/07/17 07:29:25;;;;;;;0.75;0.75;;;;;;;37.26;30.29;99697.81;5052352;27;20235;-64
2023/07/17 07:31:52;;;;;;;0.80;0.80;;;;;;;37.27;29.87;99694.94;5084710;27;20209;-63
2023/07/17 07:34:19;;;;;;;0.75;0.75;;;;;;;37.25;31.16;99701.53;5090033;27;20201;-63
2023/07/17 07:36:46;;;;;;;1.02;1.00;;;;;;;37.31;32.06;99695.34;5088527;27;20197;-64
2023/07/17 07:39:12;;;;;;;0.80;0.80;;;;;;;37.35;31.30;99704.59;5075227;27;20209;-64
2023/07/17 07:41:43;;;;;;;0.50;0.50;;;;;;;37.51;30.35;99708.66;5047118;27;20197;-64
2023/07/17 07:44:10;;;;;;;2.47;1.98;;;;;;;37.58;30.04;99704.13;5058616;27;20193;-64
2023/07/17 07:46:36;;;;;;;0.73;0.73;;;;;;;37.74;29.85;99695.59;5059444;27;20205;-64
2023/07/17 07:49:03;;;;;;;0.77;0.77;;;;;;;37.72;29.80;99694.97;5105380;27;20772;-64
2023/07/17 07:51:30;;;;;;;0.93;0.93;;;;;;;37.46;29.80;99687.06;5062074;27;20736;-65
2023/07/17 07:53:57;;;;;;;0.65;0.65;;;;;;;37.56;31.20;99692.78;5084234;27;20219;-64
2023/07/17 07:56:23;;;;;;;0.73;0.73;;;;;;;37.64;33.57;99685.34;5050203;27;20205;-64
2023/07/17 07:58:51;;;;;;;9.98;5.15;;;;;;;37.87;31.72;99686.66;5094195;27;20201;-64
2023/07/17 08:01:18;;;;;;;12.38;1.63;;;;;;;37.87;31.58;99684.00;5050826;27;20590;-64
2023/07/17 08:03:45;;;;;;;0.60;0.60;;;;;;;37.50;30.97;99674.91;5081546;27;20201;-63
2023/07/17 08:06:12;;;;;;;0.50;0.50;;;;;;;37.57;31.32;99673.03;5067880;27;21853;-64
2023/07/17 08:08:39;;;;;;;1.63;0.50;;;;;;;37.84;31.95;99690.56;5075737;27;20630;-63
2023/07/17 08:11:05;;;;;;;0.73;0.73;;;;;;;38.10;30.27;99685.06;5092158;27;20197;-63
2023/07/17 08:13:32;;;;;;;3.47;0.80;;;;;;;38.33;29.07;99679.97;5069316;27;20209;-64
2023/07/17 08:16:00;;;;;;;4.57;0.80;;;;;;;38.47;30.22;99679.88;5068387;27;20284;-63
2023/07/17 08:18:27;;;;;;;0.60;0.60;;;;;;;38.45;29.56;99681.97;5063952;27;20815;-63
2023/07/17 08:20:55;;;;;;;0.70;0.70;;;;;;;38.01;29.38;99675.66;5045377;27;20205;-64
2023/07/17 08:23:26;;;;;;;0.63;0.63;;;;;;;38.02;29.52;99671.97;5052028;27;20208;-63
2023/07/17 08:25:53;;;;;;;0.73;0.73;;;;;;;38.24;28.79;99675.91;5069050;27;20703;-64
2023/07/17 08:28:20;;;;;;;3.35;0.73;;;;;;;38.50;29.36;99674.06;5051984;27;20212;-64
2023/07/17 08:30:46;;;;;;;0.70;0.70;;;;;;;38.47;28.12;99674.53;5054231;27;20203;-63
2023/07/17 08:33:15;;;;;;;0.60;0.60;;;;;;;38.35;29.26;99672.50;5047812;27;20207;-64
2023/07/17 08:35:41;;;;;;;0.70;0.70;;;;;;;38.42;30.68;99671.69;5070065;27;20291;-63
2023/07/17 08:38:08;;;;;;;0.98;0.98;;;;;;;38.21;29.36;99670.16;5067905;27;20296;-64
2023/07/17 08:40:39;;;;;;;0.70;0.70;;;;;;;38.34;29.22;99670.06;5101844;27;20680;-63
2023/07/17 08:43:07;;;;;;;0.70;0.70;;;;;;;38.35;28.04;99671.72;5072215;27;20265;-63
2023/07/17 08:45:34;;;;;;;0.70;0.50;;;;;;;38.44;28.36;99669.59;5070166;27;20644;-63
2023/07/17 08:48:01;;;;;;;0.80;0.80;;;;;;;38.55;29.26;99660.84;5053595;27;20212;-63
2023/07/17 08:50:30;;;;;;;0.70;0.70;;;;;;;38.75;29.09;99661.47;5056630;27;20706;-63
2023/07/17 08:52:57;;;;;;;0.80;0.80;;;;;;;38.91;29.73;99660.91;5063140;27;20205;-63
2023/07/17 08:55:25;;;;;;;0.80;0.80;;;;;;;38.85;28.51;99662.63;5045200;27;20197;-63
2023/07/17 08:57:53;;;;;;;0.85;0.85;;;;;;;38.41;30.29;99645.94;5058984;27;20209;-64
2023/07/17 09:00:23;;;;;;;1.88;0.90;;;;;;;38.48;30.23;99646.69;5072691;27;20656;-65
2023/07/17 09:02:50;;;;;;;0.65;0.63;;;;;;;38.67;31.56;99648.38;5080458;27;20233;-63
2023/07/17 09:05:17;;;;;;;0.90;0.90;;;;;;;38.64;29.29;99648.81;5058542;27;20208;-63
2023/07/17 09:07:47;;;;;;;2.92;0.60;;;;;;;38.32;28.84;99643.47;5070653;27;20208;-62
2023/07/17 09:10:16;;;;;;;0.70;0.70;;;;;;;38.40;30.45;99645.09;5071888;27;20969;-63
2023/07/17 09:12:43;;;;;;;1.00;1.00;;;;;;;38.50;31.81;99639.25;5081276;27;20209;-63
2023/07/17 09:15:15;;;;;;;0.70;0.70;;;;;;;38.56;31.30;99635.69;5098325;27;20241;-62
2023/07/17 09:17:41;;;;;;;0.70;0.70;;;;;;;38.72;30.08;99643.13;5070212;27;20715;-63
2023/07/17 09:20:11;;;;;;;0.90;0.90;;;;;;;38.94;30.33;99640.91;5063622;27;20676;-65
2023/07/17 09:22:39;;;;;;;0.93;0.93;;;;;;;39.11;30.06;99644.59;5070105;27;20211;-63
2023/07/17 09:25:08;;;;;;;1.05;1.05;;;;;;;39.26;32.09;99637.81;5070520;27;20240;-63
2023/07/17 09:27:44;;;;;;;1.48;0.73;;;;;;;39.42;30.44;99630.22;5055846;27;20212;-63
2023/07/17 09:30:13;;;;;;;1.20;1.20;;;;;;;39.46;33.77;99626.00;5091883;27;20595;-64
2023/07/17 09:32:41;;;;;;;0.80;0.80;;;;;;;39.38;30.28;99627.16;5078792;27;20244;-63
2023/07/17 09:35:11;;;;;;;0.70;0.70;;;;;;;39.19;33.68;99618.31;5082827;27;20201;-64
2023/07/17 09:37:39;;;;;;;1.23;1.23;;;;;;;39.28;33.99;99619.66;5067084;27;20200;-64
2023/07/17 09:40:11;;;;;;;0.77;0.77;;;;;;;39.30;29.26;99612.19;5072852;27;20686;-66
2023/07/17 09:42:39;;;;;;;0.88;0.88;;;;;;;39.47;31.36;99616.91;5061439;27;20232;-64
2023/07/17 09:45:08;;;;;;;0.80;0.80;;;;;;;39.67;28.99;99618.31;5084965;27;20830;-63
2023/07/17 09:47:35;;;;;;;1.15;0.95;;;;;;;39.85;30.08;99612.03;5079382;27;20672;-63
2023/07/17 09:50:03;;;;;;;1.38;1.00;;;;;;;39.99;28.32;99612.66;5065074;27;20233;-66
2023/07/17 09:52:31;;;;;;;0.70;0.70;;;;;;;39.97;30.92;99602.13;5066894;27;20236;-66
2023/07/17 09:55:00;;;;;;;2.17;0.70;;;;;;;39.85;30.00;99598.59;5072025;27;20205;-66
2023/07/17 09:57:30;;;;;;;0.90;0.90;;;;;;;39.69;29.64;99604.66;5092224;27;20211;-64
2023/07/17 09:59:58;;;;;;;1.08;1.08;;;;;;;39.75;29.90;99590.31;5049403;27;20276;-64
2023/07/17 10:02:30;;;;;;;2.53;1.10;;;;;;;39.67;30.43;99596.84;5065250;27;20292;-64
2023/07/17 10:04:59;;;;;;;1.17;0.98;;;;;;;39.71;28.87;99597.19;5065860;27;20647;-63
2023/07/17 10:07:29;;;;;;;0.93;0.93;;;;;;;39.53;30.02;99599.91;5073733;27;20201;-64
2023/07/17 10:09:58;;;;;;;1.10;1.10;;;;;;;39.66;29.88;99597.03;5050928;27;20324;-64
2023/07/17 10:12:26;;;;;;;2.85;1.10;;;;;;;39.67;30.79;99601.34;5066052;27;20296;-63
2023/07/17 10:14:55;;;;;;;1.02;1.00;;;;;;;39.72;30.34;99588.06;5062838;27;20201;-64
2023/07/17 10:17:29;;;;;;;1.08;0.98;;;;;;;39.80;30.71;99585.06;5049723;27;20623;-64
2023/07/17 10:19:58;;;;;;;2.10;1.30;;;;;;;39.94;30.81;99580.31;5086762;27;20265;-67
2023/07/17 10:22:31;;;;;;;1.00;1.00;;;;;;;40.04;30.89;99557.19;5048284;27;20690;-63
2023/07/17 10:24:58;;;;;;;1.55;1.40;;;;;;;40.21;29.30;99571.59;5050691;27;20610;-64
2023/07/17 10:27:41;;;;;;;0.80;0.80;;;;;;;40.15;28.94;99566.34;5070662;27;20209;-64
2023/07/17 10:30:31;;;;;;;0.90;0.90;;;;;;;40.02;29.54;99553.91;5054791;27;20592;-67
2023/07/17 10:33:11;;;;;;;1.08;1.08;;;;;;;39.86;30.10;99557.28;5064584;27;20198;-68
2023/07/17 10:35:48;;;;;;;1.75;1.08;;;;;;;39.83;29.78;99557.75;5069934;27;20671;-65
2023/07/17 10:38:17;;;;;;;1.00;1.00;;;;;;;39.83;30.55;99549.72;5094798;27;20609;-64
2023/07/17 10:40:43;;;;;;;1.15;1.00;;;;;;;39.65;31.99;99549.75;5064465;27;20246;-65
2023/07/17 10:43:15;;;;;;;1.10;1.10;;;;;;;39.87;30.69;99542.81;5058280;27;20664;-66
2023/07/17 10:45:43;;;;;;;1.10;1.10;;;;;;;39.56;31.51;99540.41;5073953;27;20737;-65
2023/07/17 10:48:11;;;;;;;1.10;1.10;;;;;;;39.60;32.22;99530.84;5049109;27;20201;-65
2023/07/17 10:50:39;;;;;;;1.25;1.25;;;;;;;39.68;30.78;99523.28;5046628;27;20216;-65
2023/07/17 10:53:09;;;;;;;1.00;1.00;;;;;;;39.77;31.09;99531.84;5054481;27;20228;-64
2023/07/17 10:55:36;;;;;;;1.13;1.13;;;;;;;39.11;32.75;99527.41;5073729;27;20721;-64
2023/07/17 10:58:03;;;;;;;1.20;1.20;;;;;;;38.88;34.04;99527.31;5102570;27;20277;-65
2023/07/17 11:00:32;;;;;;;1.10;1.10;;;;;;;39.01;32.62;99521.78;5068855;27;20212;-65
2023/07/17 11:03:01;;;;;;;1.25;1.25;;;;;;;39.16;32.42;99519.47;5080495;27;20308;-66
2023/07/17 11:05:28;;;;;;;1.35;1.35;;;;;;;39.27;31.46;99521.44;5069803;27;20197;-63
2023/07/17 11:07:57;;;;;;;1.75;1.25;;;;;;;38.99;31.04;99523.03;5083272;27;20208;-62
2023/07/17 11:10:24;;;;;;;3.70;1.13;;;;;;;38.93;31.63;99516.75;5064391;27;20308;-64
2023/07/17 11:12:51;;;;;;;0.80;0.80;;;;;;;39.07;33.12;99512.00;5055542;27;20211;-64
2023/07/17 11:15:21;;;;;;;1.15;1.13;;;;;;;39.30;33.05;99510.25;5069032;27;20209;-65
2023/07/17 11:17:48;;;;;;;1.17;1.17;;;;;;;39.54;32.24;99510.31;5059171;27;20311;-67
2023/07/17 11:20:16;;;;;;;2.05;1.40;;;;;;;39.72;32.37;99507.53;5075849;27;20202;-64
2023/07/17 11:22:43;;;;;;;0.90;0.90;;;;;;;39.59;31.58;99510.41;5084131;27;20230;-64
2023/07/17 11:25:11;;;;;;;1.90;1.05;;;;;;;39.48;31.06;99506.69;5080005;27;20201;-65
2023/07/17 11:27:40;;;;;;;1.20;1.20;;;;;;;39.68;31.03;99506.41;5082171;27;20672;-64
2023/07/17 11:30:20;;;;;;;1.40;1.30;;;;;;;39.79;32.06;99498.34;5048104;27;20304;-64
2023/07/17 11:32:55;;;;;;;1.42;1.40;;;;;;;39.84;31.33;99505.72;5079258;27;20269;-64
2023/07/17 11:35:24;;;;;;;6.53;1.25;;;;;;;39.86;32.54;99493.69;5069407;27;20208;-64